createdAt,value
2022-09-10T00:00:32.329Z,100.00
2022-09-10T00:03:00.004Z,100.00
2022-09-10T00:05:27.762Z,100.00
2022-09-10T00:07:55.441Z,100.00
2022-09-10T00:10:25.202Z,100.00
2022-09-10T00:12:52.790Z,100.00
2022-09-10T00:15:20.398Z,100.00
2022-09-10T00:17:47.976Z,100.00
2022-09-10T00:20:15.709Z,100.00
2022-09-10T00:22:43.295Z,100.00
2022-09-10T00:25:11.927Z,100.00
2022-09-10T00:27:40.917Z,100.00
2022-09-10T00:30:09.127Z,100.00
2022-09-10T00:32:38.431Z,100.00
2022-09-10T00:35:07.346Z,100.00
2022-09-10T00:37:34.951Z,100.00
2022-09-10T00:40:02.925Z,100.00
2022-09-10T00:42:30.726Z,100.00
2022-09-10T00:45:04.283Z,100.00
2022-09-10T00:47:34.345Z,100.00
2022-09-10T00:50:05.556Z,100.00
2022-09-10T00:52:37.589Z,100.00
2022-09-10T00:55:07.854Z,100.00
2022-09-10T00:57:35.457Z,100.00
2022-09-10T01:00:07.199Z,100.00
2022-09-10T01:02:36.006Z,100.00
2022-09-10T01:05:05.271Z,100.00
2022-09-10T01:07:33.721Z,100.00
2022-09-10T01:10:03.552Z,100.00
2022-09-10T01:12:46.376Z,100.00
2022-09-10T01:15:23.815Z,100.00
2022-09-10T01:18:03.439Z,100.00
2022-09-10T01:20:52.291Z,100.00
2022-09-10T01:23:31.338Z,100.00
2022-09-10T01:26:04.924Z,100.00
2022-09-10T01:28:36.787Z,100.00
2022-09-10T01:31:11.451Z,100.00
2022-09-10T01:33:43.074Z,100.00
2022-09-10T01:36:14.775Z,100.00
2022-09-10T01:38:42.825Z,100.00
2022-09-10T01:41:10.839Z,100.00
2022-09-10T01:43:41.964Z,100.00
2022-09-10T01:46:21.541Z,100.00
2022-09-10T01:48:59.660Z,100.00
2022-09-10T01:51:33.722Z,100.00
2022-09-10T01:54:11.207Z,100.00
2022-09-10T01:56:41.623Z,100.00
2022-09-10T01:59:19.124Z,100.00
2022-09-10T02:01:49.084Z,100.00
2022-09-10T02:04:18.378Z,100.00
2022-09-10T02:06:48.386Z,100.00
2022-09-10T02:09:16.339Z,100.00
2022-09-10T02:11:45.123Z,100.00
2022-09-10T02:14:14.320Z,100.00
2022-09-10T02:16:44.031Z,100.00
2022-09-10T02:19:11.790Z,100.00
2022-09-10T02:21:39.486Z,100.00
2022-09-10T02:24:08.247Z,100.00
2022-09-10T02:26:37.090Z,100.00
2022-09-10T02:29:05.286Z,100.00
2022-09-10T02:31:34.330Z,100.00
2022-09-10T02:34:03.311Z,100.00
2022-09-10T02:36:31.879Z,100.00
2022-09-10T02:38:59.525Z,100.00
2022-09-10T02:41:27.609Z,100.00
2022-09-10T02:43:55.517Z,100.00
2022-09-10T02:46:23.942Z,100.00
2022-09-10T02:48:54.931Z,100.00
2022-09-10T02:51:22.610Z,100.00
2022-09-10T02:53:50.331Z,100.00
2022-09-10T02:56:19.591Z,100.00
2022-09-10T02:58:47.202Z,100.00
2022-09-10T03:01:15.785Z,100.00
2022-09-10T03:03:43.787Z,100.00
2022-09-10T03:06:12.751Z,100.00
2022-09-10T03:08:40.496Z,100.00
2022-09-10T03:11:08.251Z,100.00
2022-09-10T03:13:36.252Z,100.00
2022-09-10T03:16:04.741Z,100.00
2022-09-10T03:18:32.451Z,100.00
2022-09-10T03:21:09.009Z,100.00
2022-09-10T03:23:38.019Z,100.00
2022-09-10T03:26:06.201Z,100.00
2022-09-10T03:28:34.102Z,100.00
2022-09-10T03:31:02.133Z,100.00
2022-09-10T03:33:29.736Z,100.00
2022-09-10T03:35:57.331Z,100.00
2022-09-10T03:38:25.340Z,100.00
2022-09-10T03:40:54.594Z,100.00
2022-09-10T03:43:23.026Z,100.00
2022-09-10T03:45:50.971Z,100.00
2022-09-10T03:48:19.025Z,100.00
2022-09-10T03:50:46.895Z,100.00
2022-09-10T03:53:14.783Z,100.00
2022-09-10T03:55:44.053Z,100.00
2022-09-10T03:58:13.367Z,100.00
2022-09-10T04:00:41.029Z,100.00
2022-09-10T04:03:08.861Z,100.00
2022-09-10T04:05:40.475Z,100.00
2022-09-10T04:08:09.902Z,100.00
2022-09-10T04:10:37.804Z,100.00
2022-09-10T04:13:05.606Z,100.00
2022-09-10T04:15:34.854Z,100.00
2022-09-10T04:18:02.465Z,100.00
2022-09-10T04:20:30.062Z,100.00
2022-09-10T04:22:57.750Z,100.00
2022-09-10T04:25:25.397Z,100.00
2022-09-10T04:27:53.178Z,100.00
2022-09-10T04:30:20.865Z,100.00
2022-09-10T04:32:50.405Z,100.00
2022-09-10T04:35:19.332Z,100.00
2022-09-10T04:37:47.002Z,100.00
2022-09-10T04:40:14.682Z,100.00
2022-09-10T04:42:42.297Z,100.00
2022-09-10T04:45:10.777Z,100.00
2022-09-10T04:47:38.450Z,100.00
2022-09-10T04:50:08.167Z,100.00
2022-09-10T04:52:36.091Z,100.00
2022-09-10T04:55:03.706Z,100.00
2022-09-10T04:57:31.302Z,100.00
2022-09-10T04:59:58.909Z,100.00
2022-09-10T05:02:26.530Z,100.00
2022-09-10T05:04:54.356Z,100.00
2022-09-10T05:07:23.314Z,100.00
2022-09-10T05:09:50.896Z,100.00
2022-09-10T05:12:19.834Z,100.00
2022-09-10T05:14:48.712Z,100.00
2022-09-10T05:17:16.527Z,100.00
2022-09-10T05:19:44.165Z,100.00
2022-09-10T05:22:11.783Z,100.00
2022-09-10T05:24:40.751Z,100.00
2022-09-10T05:27:08.755Z,100.00
2022-09-10T05:29:36.372Z,100.00
2022-09-10T05:32:04.142Z,100.00
2022-09-10T05:34:31.819Z,100.00
2022-09-10T05:36:59.410Z,100.00
2022-09-10T05:39:27.007Z,100.00
2022-09-10T05:41:57.283Z,100.00
2022-09-10T05:44:24.882Z,100.00
2022-09-10T05:46:52.599Z,100.00
2022-09-10T05:49:20.184Z,100.00
2022-09-10T05:51:47.800Z,100.00
2022-09-10T05:54:16.205Z,100.00
2022-09-10T05:56:43.811Z,100.00
2022-09-10T05:59:12.793Z,100.00
2022-09-10T06:01:40.370Z,100.00
2022-09-10T06:04:07.998Z,100.00
2022-09-10T06:06:35.587Z,100.00
2022-09-10T06:09:03.197Z,100.00
2022-09-10T06:11:30.814Z,100.00
2022-09-10T06:13:58.531Z,100.00
2022-09-10T06:16:27.735Z,100.00
2022-09-10T06:18:55.490Z,100.00
2022-09-10T06:21:28.182Z,100.00
2022-09-10T06:23:56.127Z,100.00
2022-09-10T06:26:23.919Z,100.00
2022-09-10T06:28:51.494Z,100.00
2022-09-10T06:31:19.827Z,100.00
2022-09-10T06:33:49.892Z,100.00
2022-09-10T06:36:17.592Z,100.00
2022-09-10T06:38:45.583Z,100.00
2022-09-10T06:41:13.931Z,100.00
2022-09-10T06:43:41.645Z,100.00
2022-09-10T06:46:32.026Z,100.00
2022-09-10T06:49:02.881Z,100.00
2022-09-10T06:51:31.025Z,100.00
2022-09-10T06:53:58.779Z,100.00
2022-09-10T06:56:26.386Z,100.00
2022-09-10T06:58:53.966Z,100.00
2022-09-10T07:01:23.839Z,100.00
2022-09-10T07:03:55.330Z,100.00
2022-09-10T07:06:24.734Z,100.00
2022-09-10T07:08:54.730Z,100.00
2022-09-10T07:11:22.328Z,100.00
2022-09-10T07:13:51.829Z,100.00
2022-09-10T07:16:19.610Z,100.00
2022-09-10T07:18:49.020Z,100.00
2022-09-10T07:21:17.126Z,100.00
2022-09-10T07:23:48.431Z,100.00
2022-09-10T07:26:16.978Z,100.00
2022-09-10T07:28:44.870Z,100.00
2022-09-10T07:31:14.386Z,100.00
2022-09-10T07:33:42.201Z,100.00
2022-09-10T07:36:11.389Z,100.00
2022-09-10T07:38:39.091Z,100.00
2022-09-10T07:41:10.137Z,100.00
2022-09-10T07:43:39.003Z,100.00
2022-09-10T07:46:07.142Z,100.00
2022-09-10T07:48:35.112Z,100.00
2022-09-10T07:51:03.645Z,100.00
2022-09-10T07:53:31.282Z,100.00
2022-09-10T07:55:59.521Z,100.00
2022-09-10T07:58:28.499Z,100.00
2022-09-10T08:00:56.249Z,100.00
2022-09-10T08:03:23.891Z,100.00
2022-09-10T08:05:51.473Z,100.00
2022-09-10T08:08:20.077Z,100.00
2022-09-10T08:10:48.662Z,100.00
2022-09-10T08:13:16.415Z,100.00
2022-09-10T08:15:45.562Z,100.00
2022-09-10T08:18:14.111Z,100.00
2022-09-10T08:20:41.962Z,100.00
2022-09-10T08:23:10.751Z,100.00
2022-09-10T08:25:38.417Z,100.00
2022-09-10T08:28:06.114Z,100.00
2022-09-10T08:30:33.739Z,100.00
2022-09-10T08:33:02.738Z,100.00
2022-09-10T08:35:30.335Z,100.00
2022-09-10T08:37:58.037Z,100.00
2022-09-10T08:40:25.679Z,100.00
2022-09-10T08:42:53.645Z,100.00
2022-09-10T08:45:23.551Z,100.00
2022-09-10T08:47:56.958Z,100.00
2022-09-10T08:50:29.992Z,100.00
2022-09-10T08:53:00.451Z,100.00
2022-09-10T08:55:30.552Z,100.00
2022-09-10T08:58:00.474Z,100.00
2022-09-10T09:00:34.172Z,100.00
2022-09-10T09:03:04.790Z,100.00
2022-09-10T09:05:38.215Z,100.00
2022-09-10T09:08:06.265Z,100.00
2022-09-10T09:10:40.929Z,100.00
2022-09-10T09:13:27.115Z,100.00
2022-09-10T09:16:00.710Z,100.00
2022-09-10T09:18:32.518Z,100.00
2022-09-10T09:21:07.013Z,100.00
2022-09-10T09:23:57.063Z,100.00
2022-09-10T09:26:34.867Z,100.00
2022-09-10T09:29:05.405Z,100.00
2022-09-10T09:31:39.151Z,100.00
2022-09-10T09:34:08.360Z,100.00
2022-09-10T09:36:40.118Z,100.00
2022-09-10T09:39:14.337Z,100.00
2022-09-10T09:41:46.277Z,100.00
2022-09-10T09:44:18.194Z,100.00
2022-09-10T09:46:45.807Z,100.00
2022-09-10T09:49:16.216Z,100.00
2022-09-10T09:51:46.374Z,100.00
2022-09-10T09:54:56.734Z,100.00
2022-09-10T09:57:15.892Z,100.00
2022-09-10T09:59:43.547Z,100.00
2022-09-10T10:02:13.127Z,100.00
2022-09-10T10:04:42.543Z,100.00
2022-09-10T10:07:12.031Z,100.00
2022-09-10T10:09:43.425Z,100.00
2022-09-10T10:12:19.910Z,100.00
2022-09-10T10:14:47.692Z,100.00
2022-09-10T10:17:29.694Z,100.00
2022-09-10T10:19:59.013Z,100.00
2022-09-10T10:22:30.262Z,100.00
2022-09-10T10:24:57.914Z,100.00
2022-09-10T10:27:33.365Z,100.00
2022-09-10T10:30:02.562Z,100.00
2022-09-10T10:32:39.079Z,100.00
2022-09-10T10:35:16.577Z,100.00
2022-09-10T10:37:52.650Z,100.00
2022-09-10T10:40:27.370Z,100.00
2022-09-10T10:43:00.315Z,100.00
2022-09-10T10:45:36.640Z,100.00
2022-09-10T10:48:05.459Z,100.00
2022-09-10T10:50:36.911Z,100.00
2022-09-10T10:53:16.535Z,100.00
2022-09-10T10:55:48.122Z,100.00
2022-09-10T10:58:24.278Z,100.00
2022-09-10T11:00:55.006Z,100.00
2022-09-10T11:03:26.371Z,100.00
2022-09-10T11:05:56.130Z,98.40
2022-09-10T11:08:28.459Z,100.00
2022-09-10T11:11:00.495Z,95.42
2022-09-10T11:13:32.418Z,97.04
2022-09-10T11:16:05.580Z,100.00
2022-09-10T11:18:35.477Z,100.00
2022-09-10T11:21:06.237Z,100.00
2022-09-10T11:23:38.430Z,100.00
2022-09-10T11:26:08.749Z,100.00
2022-09-10T11:28:37.653Z,100.00
2022-09-10T11:31:12.061Z,100.00
2022-09-10T11:33:46.209Z,100.00
2022-09-10T11:36:20.162Z,100.00
2022-09-10T11:38:55.815Z,100.00
2022-09-10T11:41:24.110Z,100.00
2022-09-10T11:43:53.746Z,100.00
2022-09-10T11:46:23.723Z,100.00
2022-09-10T11:48:54.980Z,100.00
2022-09-10T11:51:24.848Z,100.00
2022-09-10T11:53:54.754Z,100.00
2022-09-10T11:56:29.056Z,100.00
2022-09-10T11:59:04.841Z,100.00
2022-09-10T12:01:44.110Z,100.00
2022-09-10T12:04:35.737Z,100.00
2022-09-10T12:07:12.151Z,100.00
2022-09-10T12:09:46.850Z,100.00
2022-09-10T12:12:19.228Z,100.00
2022-09-10T12:14:47.564Z,98.60
2022-09-10T12:17:17.025Z,99.41
2022-09-10T12:19:47.253Z,98.32
2022-09-10T12:22:20.439Z,98.53
2022-09-10T12:24:54.709Z,96.68
2022-09-10T12:27:22.580Z,97.58
2022-09-10T12:29:50.302Z,94.83
2022-09-10T12:32:28.607Z,95.27
2022-09-10T12:35:17.351Z,94.89
2022-09-10T12:37:44.985Z,94.02
2022-09-10T12:40:32.087Z,92.67
2022-09-10T12:43:21.057Z,91.65
2022-09-10T12:46:02.072Z,90.24
2022-09-10T12:48:30.343Z,91.48
2022-09-10T12:51:00.537Z,90.33
2022-09-10T12:53:46.544Z,93.77
2022-09-10T12:56:38.226Z,92.42
2022-09-10T12:59:19.377Z,93.96
2022-09-10T13:01:48.275Z,94.25
2022-09-10T13:04:21.554Z,92.36
2022-09-10T13:06:49.363Z,91.09
2022-09-10T13:09:18.957Z,93.17
2022-09-10T13:11:49.707Z,91.64
2022-09-10T13:14:22.322Z,89.29
2022-09-10T13:16:49.914Z,91.51
2022-09-10T13:19:51.057Z,91.47
2022-09-10T13:22:49.078Z,91.24
2022-09-10T13:25:27.759Z,92.67
2022-09-10T13:27:55.381Z,93.63
2022-09-10T13:30:24.537Z,95.82
2022-09-10T13:32:53.296Z,95.32
2022-09-10T13:35:29.654Z,98.67
2022-09-10T13:38:12.086Z,98.59
2022-09-10T13:41:13.140Z,97.96
2022-09-10T13:43:48.814Z,98.31
2022-09-10T13:46:24.803Z,97.33
2022-09-10T13:48:53.998Z,96.41
2022-09-10T13:51:26.109Z,98.37
2022-09-10T13:53:54.519Z,100.00
2022-09-10T13:56:23.004Z,100.00
2022-09-10T13:58:51.499Z,100.00
2022-09-10T14:01:19.232Z,100.00
2022-09-10T14:03:48.239Z,100.00
2022-09-10T14:06:17.655Z,100.00
2022-09-10T14:08:49.503Z,100.00
2022-09-10T14:11:18.936Z,100.00
2022-09-10T14:13:48.663Z,100.00
2022-09-10T14:16:19.418Z,100.00
2022-09-10T14:18:51.014Z,100.00
2022-09-10T14:21:19.629Z,100.00
2022-09-10T14:23:48.594Z,100.00
2022-09-10T14:26:23.469Z,100.00
2022-09-10T14:28:52.595Z,100.00
2022-09-10T14:31:22.085Z,99.27
2022-09-10T14:33:51.226Z,95.25
2022-09-10T14:36:21.947Z,95.98
2022-09-10T14:38:57.636Z,93.26
2022-09-10T14:41:26.737Z,93.46
2022-09-10T14:44:09.173Z,91.63
2022-09-10T14:46:51.553Z,94.00
2022-09-10T14:49:25.353Z,99.70
2022-09-10T14:51:52.962Z,96.39
2022-09-10T14:54:20.707Z,92.20
2022-09-10T14:56:48.850Z,93.88
2022-09-10T14:59:17.535Z,93.37
2022-09-10T15:01:48.140Z,95.65
2022-09-10T15:04:16.570Z,94.34
2022-09-10T15:06:45.566Z,95.06
2022-09-10T15:09:13.722Z,96.77
2022-09-10T15:11:44.471Z,98.39
2022-09-10T15:14:15.311Z,95.79
2022-09-10T15:16:43.932Z,97.37
2022-09-10T15:19:12.426Z,99.18
2022-09-10T15:21:40.225Z,98.62
2022-09-10T15:24:10.208Z,99.37
2022-09-10T15:26:38.371Z,100.00
2022-09-10T15:29:06.030Z,100.00
2022-09-10T15:31:33.651Z,98.13
2022-09-10T15:34:01.267Z,97.16
2022-09-10T15:36:29.211Z,97.46
2022-09-10T15:38:59.652Z,96.98
2022-09-10T15:41:29.863Z,97.75
2022-09-10T15:43:57.854Z,98.80
2022-09-10T15:46:25.738Z,99.01
2022-09-10T15:48:53.716Z,98.17
2022-09-10T15:51:23.102Z,96.91
2022-09-10T15:53:51.490Z,98.85
2022-09-10T15:56:19.774Z,100.00
2022-09-10T15:58:52.714Z,98.54
2022-09-10T16:01:20.352Z,98.52
2022-09-10T16:03:50.160Z,99.09
2022-09-10T16:06:19.465Z,99.95
2022-09-10T16:08:50.614Z,99.67
2022-09-10T16:11:18.742Z,100.00
2022-09-10T16:13:46.644Z,99.33
2022-09-10T16:16:17.488Z,100.00
2022-09-10T16:18:45.657Z,99.94
2022-09-10T16:21:15.561Z,100.00
2022-09-10T16:23:43.906Z,100.00
2022-09-10T16:26:14.858Z,100.00
2022-09-10T16:28:43.355Z,100.00
2022-09-10T16:31:16.000Z,100.00
2022-09-10T16:33:45.531Z,100.00
2022-09-10T16:36:15.171Z,100.00
2022-09-10T16:38:43.540Z,100.00
2022-09-10T16:41:12.043Z,100.00
2022-09-10T16:43:39.900Z,100.00
2022-09-10T16:46:09.305Z,100.00
2022-09-10T16:48:37.762Z,100.00
2022-09-10T16:51:07.726Z,100.00
2022-09-10T16:53:36.575Z,100.00
2022-09-10T16:56:05.231Z,100.00
2022-09-10T16:58:35.963Z,100.00
2022-09-10T17:01:03.895Z,100.00
2022-09-10T17:03:31.949Z,100.00
2022-09-10T17:06:00.238Z,100.00
2022-09-10T17:08:30.174Z,100.00
2022-09-10T17:10:57.799Z,100.00
2022-09-10T17:13:25.409Z,100.00
2022-09-10T17:15:54.068Z,100.00
2022-09-10T17:18:21.682Z,100.00
2022-09-10T17:20:49.306Z,100.00
2022-09-10T17:23:18.705Z,100.00
2022-09-10T17:25:47.930Z,100.00
2022-09-10T17:28:15.531Z,100.00
2022-09-10T17:30:43.308Z,100.00
2022-09-10T17:33:10.910Z,100.00
2022-09-10T17:35:38.908Z,100.00
2022-09-10T17:38:08.449Z,100.00
2022-09-10T17:40:38.425Z,100.00
2022-09-10T17:43:08.367Z,100.00
2022-09-10T17:45:38.115Z,100.00
2022-09-10T17:48:05.726Z,100.00
2022-09-10T17:50:33.315Z,100.00
2022-09-10T17:53:00.979Z,100.00
2022-09-10T17:55:32.998Z,100.00
2022-09-10T17:58:01.233Z,100.00
2022-09-10T18:00:30.313Z,100.00
2022-09-10T18:02:57.920Z,100.00
2022-09-10T18:05:26.503Z,100.00
2022-09-10T18:07:54.228Z,100.00
2022-09-10T18:10:23.046Z,100.00
2022-09-10T18:12:50.658Z,100.00
2022-09-10T18:15:19.734Z,100.00
2022-09-10T18:17:48.705Z,100.00
2022-09-10T18:20:16.526Z,100.00
2022-09-10T18:22:44.130Z,100.00
2022-09-10T18:25:12.118Z,100.00
2022-09-10T18:27:41.586Z,100.00
2022-09-10T18:30:09.534Z,100.00
2022-09-10T18:32:37.251Z,100.00
2022-09-10T18:35:06.858Z,100.00
2022-09-10T18:37:34.781Z,100.00
2022-09-10T18:40:06.088Z,100.00
2022-09-10T18:42:33.734Z,100.00
2022-09-10T18:45:01.354Z,100.00
2022-09-10T18:47:44.041Z,100.00
2022-09-10T18:50:13.874Z,100.00
2022-09-10T18:52:41.568Z,100.00
2022-09-10T18:55:09.593Z,100.00
2022-09-10T18:57:37.179Z,100.00
2022-09-10T19:00:05.112Z,100.00
2022-09-10T19:02:32.880Z,100.00
2022-09-10T19:05:17.819Z,100.00
2022-09-10T19:07:50.027Z,100.00
2022-09-10T19:10:17.769Z,100.00
2022-09-10T19:12:45.365Z,100.00
2022-09-10T19:15:12.963Z,100.00
2022-09-10T19:17:40.558Z,100.00
2022-09-10T19:20:09.051Z,100.00
2022-09-10T19:22:37.744Z,100.00
2022-09-10T19:25:07.535Z,100.00
2022-09-10T19:27:35.191Z,100.00
2022-09-10T19:30:02.799Z,100.00
2022-09-10T19:32:30.666Z,100.00
2022-09-10T19:34:58.262Z,100.00
2022-09-10T19:37:25.862Z,100.00
2022-09-10T19:39:57.443Z,100.00
2022-09-10T19:42:26.453Z,100.00
2022-09-10T19:44:54.040Z,100.00
2022-09-10T19:47:22.546Z,100.00
2022-09-10T19:49:50.119Z,100.00
2022-09-10T19:52:18.266Z,100.00
2022-09-10T19:54:45.866Z,100.00
2022-09-10T19:57:14.098Z,100.00
2022-09-10T19:59:43.337Z,100.00
2022-09-10T20:02:10.964Z,100.00
2022-09-10T20:04:38.615Z,100.00
2022-09-10T20:07:06.578Z,100.00
2022-09-10T20:09:39.212Z,100.00
2022-09-10T20:12:08.858Z,100.00
2022-09-10T20:14:37.406Z,100.00
2022-09-10T20:17:06.401Z,100.00
2022-09-10T20:19:34.071Z,100.00
2022-09-10T20:22:01.666Z,100.00
2022-09-10T20:24:29.262Z,100.00
2022-09-10T20:26:57.059Z,100.00
2022-09-10T20:29:25.444Z,100.00
2022-09-10T20:31:53.391Z,100.00
2022-09-10T20:34:23.124Z,100.00
2022-09-10T20:36:52.103Z,100.00
2022-09-10T20:39:20.639Z,100.00
2022-09-10T20:41:48.427Z,100.00
2022-09-10T20:44:17.099Z,100.00
2022-09-10T20:46:45.310Z,100.00
2022-09-10T20:49:13.682Z,100.00
2022-09-10T20:51:43.109Z,100.00
2022-09-10T20:54:12.654Z,100.00
2022-09-10T20:56:40.484Z,100.00
2022-09-10T20:59:08.101Z,100.00
2022-09-10T21:01:35.787Z,100.00
2022-09-10T21:04:04.194Z,100.00
2022-09-10T21:06:33.526Z,100.00
2022-09-10T21:09:03.198Z,100.00
2022-09-10T21:11:31.906Z,100.00
2022-09-10T21:14:00.740Z,100.00
2022-09-10T21:16:29.108Z,100.00
2022-09-10T21:18:58.013Z,100.00
2022-09-10T21:21:26.999Z,100.00
2022-09-10T21:23:55.222Z,100.00
2022-09-10T21:26:25.173Z,100.00
2022-09-10T21:28:53.950Z,100.00
2022-09-10T21:31:21.602Z,100.00
2022-09-10T21:33:49.278Z,100.00
2022-09-10T21:36:18.169Z,100.00
2022-09-10T21:38:47.539Z,100.00
2022-09-10T21:41:16.740Z,100.00
2022-09-10T21:43:46.731Z,100.00
2022-09-10T21:46:15.294Z,100.00
2022-09-10T21:48:43.313Z,100.00
2022-09-10T21:51:13.243Z,100.00
2022-09-10T21:53:41.639Z,100.00
2022-09-10T21:56:11.051Z,100.00
2022-09-10T21:58:38.757Z,100.00
2022-09-10T22:01:12.358Z,100.00
2022-09-10T22:03:40.346Z,100.00
2022-09-10T22:06:08.892Z,100.00
2022-09-10T22:08:37.677Z,100.00
2022-09-10T22:11:06.506Z,100.00
2022-09-10T22:13:34.599Z,100.00
2022-09-10T22:16:02.396Z,100.00
2022-09-10T22:18:31.753Z,100.00
2022-09-10T22:21:00.995Z,100.00
2022-09-10T22:23:29.926Z,100.00
2022-09-10T22:26:03.155Z,100.00
2022-09-10T22:28:34.286Z,100.00
2022-09-10T22:31:10.079Z,100.00
2022-09-10T22:33:39.185Z,100.00
2022-09-10T22:36:10.834Z,100.00
2022-09-10T22:38:38.498Z,100.00
2022-09-10T22:41:07.866Z,100.00
2022-09-10T22:43:35.808Z,100.00
2022-09-10T22:46:04.525Z,100.00
2022-09-10T22:48:32.199Z,100.00
2022-09-10T22:51:02.054Z,100.00
2022-09-10T22:53:29.634Z,100.00
2022-09-10T22:55:58.130Z,100.00
2022-09-10T22:58:26.279Z,100.00
2022-09-10T23:00:54.370Z,100.00
2022-09-10T23:03:22.061Z,100.00
2022-09-10T23:05:49.790Z,100.00
2022-09-10T23:08:18.823Z,100.00
2022-09-10T23:10:46.391Z,100.00
2022-09-10T23:13:13.962Z,100.00
2022-09-10T23:15:41.713Z,100.00
2022-09-10T23:18:09.976Z,100.00
2022-09-10T23:20:37.674Z,100.00
2022-09-10T23:23:05.231Z,100.00
2022-09-10T23:25:36.189Z,100.00
2022-09-10T23:28:07.207Z,100.00
2022-09-10T23:30:35.957Z,100.00
2022-09-10T23:33:03.640Z,100.00
2022-09-10T23:35:31.286Z,100.00
2022-09-10T23:37:59.025Z,100.00
2022-09-10T23:40:31.038Z,100.00
2022-09-10T23:43:02.555Z,100.00
2022-09-10T23:45:30.355Z,100.00
2022-09-10T23:47:58.078Z,100.00
2022-09-10T23:50:25.638Z,100.00
2022-09-10T23:52:53.250Z,100.00
2022-09-10T23:55:20.830Z,100.00
2022-09-10T23:57:48.408Z,100.00
